createdAt,value
2023-05-07T00:02:53.083Z,5.33
2023-05-07T00:06:21.040Z,4.90
2023-05-07T00:09:25.043Z,5.30
2023-05-07T00:12:44.110Z,5.73
2023-05-07T00:15:48.051Z,5.90
2023-05-07T00:19:17.183Z,6.33
2023-05-07T00:22:20.982Z,5.80
2023-05-07T00:25:37.101Z,7.30
2023-05-07T00:28:41.122Z,6.80
2023-05-07T00:32:00.063Z,6.77
2023-05-07T00:35:20.141Z,6.70
2023-05-07T00:38:39.144Z,7.25
2023-05-07T00:41:42.937Z,7.83
2023-05-07T00:45:02.168Z,7.27
2023-05-07T00:48:06.162Z,8.47
2023-05-07T00:51:39.144Z,7.40
2023-05-07T00:54:43.097Z,8.50
2023-05-07T00:58:02.236Z,8.10
2023-05-07T01:01:06.370Z,7.90
2023-05-07T01:04:25.153Z,8.33
2023-05-07T01:07:57.596Z,7.80
2023-05-07T01:11:26.386Z,8.30
2023-05-07T01:14:42.167Z,8.20
2023-05-07T01:18:11.339Z,8.17
2023-05-07T01:21:39.275Z,8.00
2023-05-07T01:25:12.183Z,9.00
2023-05-07T01:28:28.294Z,8.70
2023-05-07T01:31:57.307Z,8.40
2023-05-07T01:35:25.342Z,8.85
2023-05-07T01:38:56.316Z,7.97
2023-05-07T01:42:16.306Z,9.87
2023-05-07T01:45:44.265Z,8.75
2023-05-07T01:49:00.254Z,9.55
2023-05-07T01:52:19.474Z,8.90
2023-05-07T01:55:47.281Z,10.00
2023-05-07T01:59:20.364Z,9.65
2023-05-07T02:02:36.425Z,9.70
2023-05-07T02:05:52.372Z,10.20
2023-05-07T02:09:08.341Z,10.50
2023-05-07T02:12:27.337Z,10.47
2023-05-07T02:15:47.611Z,11.40
2023-05-07T02:19:06.637Z,11.00
2023-05-07T02:22:34.437Z,11.00
2023-05-07T02:25:53.426Z,10.80
2023-05-07T02:28:57.415Z,12.00
2023-05-07T02:32:27.600Z,11.60
2023-05-07T02:35:43.480Z,11.73
2023-05-07T02:39:02.498Z,11.70
2023-05-07T02:42:18.428Z,12.30
2023-05-07T02:45:37.436Z,12.40
2023-05-07T02:49:06.445Z,12.05
2023-05-07T02:52:25.439Z,12.90
2023-05-07T02:55:41.576Z,13.45
2023-05-07T02:59:03.575Z,12.95
2023-05-07T03:02:20.600Z,13.35
2023-05-07T03:05:55.599Z,13.07
2023-05-07T03:08:59.529Z,12.20
2023-05-07T03:12:28.635Z,13.50
2023-05-07T03:15:44.572Z,15.07
2023-05-07T03:19:03.623Z,13.87
2023-05-07T03:22:36.637Z,13.70
2023-05-07T03:25:53.674Z,14.30
2023-05-07T03:29:09.668Z,12.60
2023-05-07T03:32:28.718Z,13.05
2023-05-07T03:35:44.648Z,14.05
2023-05-07T03:39:14.597Z,13.20
2023-05-07T03:42:42.672Z,13.80
2023-05-07T03:46:01.712Z,13.63
2023-05-07T03:49:17.743Z,12.77
2023-05-07T03:52:36.845Z,13.00
2023-05-07T03:56:05.696Z,13.50
2023-05-07T03:59:24.653Z,12.63
2023-05-07T04:02:40.886Z,12.33
2023-05-07T04:05:56.503Z,11.97
2023-05-07T04:09:12.792Z,11.97
2023-05-07T04:12:50.852Z,12.13
2023-05-07T04:16:18.830Z,11.63
2023-05-07T04:19:37.785Z,12.60
2023-05-07T04:22:54.801Z,10.57
2023-05-07T04:26:13.850Z,11.70
2023-05-07T04:29:45.977Z,11.40
2023-05-07T04:33:04.893Z,11.00
2023-05-07T04:36:20.811Z,11.30
2023-05-07T04:39:39.794Z,10.77
2023-05-07T04:42:55.878Z,12.53
2023-05-07T04:46:27.946Z,10.60
2023-05-07T04:49:43.905Z,10.60
2023-05-07T04:52:59.875Z,11.40
2023-05-07T04:56:15.882Z,12.13
2023-05-07T04:59:34.829Z,10.97
2023-05-07T05:03:04.027Z,11.40
2023-05-07T05:06:22.877Z,11.63
2023-05-07T05:09:38.871Z,11.15
2023-05-07T05:12:57.903Z,11.25
2023-05-07T05:16:13.966Z,11.23
2023-05-07T05:19:43.921Z,11.85
2023-05-07T05:22:59.901Z,11.37
2023-05-07T05:26:19.146Z,11.30
2023-05-07T05:29:47.053Z,11.97
2023-05-07T05:33:06.034Z,11.80
2023-05-07T05:36:35.998Z,12.60
2023-05-07T05:39:54.977Z,12.05
2023-05-07T05:43:11.062Z,11.70
2023-05-07T05:46:27.192Z,11.57
2023-05-07T05:49:43.026Z,12.83
2023-05-07T05:53:15.260Z,12.70
2023-05-07T05:56:43.026Z,12.60
2023-05-07T06:00:11.158Z,12.40
2023-05-07T06:03:32.192Z,12.37
2023-05-07T06:06:48.046Z,12.33
2023-05-07T06:10:17.185Z,12.73
2023-05-07T06:13:33.188Z,13.45
2023-05-07T06:16:49.200Z,13.45
2023-05-07T06:20:05.102Z,12.67
2023-05-07T06:23:24.238Z,12.57
2023-05-07T06:26:53.142Z,12.50
2023-05-07T06:30:09.437Z,13.05
2023-05-07T06:33:37.258Z,13.40
2023-05-07T06:36:56.432Z,11.83
2023-05-07T06:40:12.808Z,14.30
2023-05-07T06:43:47.259Z,12.90
2023-05-07T06:47:03.339Z,13.97
2023-05-07T06:50:35.177Z,14.23
2023-05-07T06:54:03.249Z,13.05
2023-05-07T06:57:25.226Z,13.80
2023-05-07T07:00:57.356Z,13.50
2023-05-07T07:04:16.266Z,14.13
2023-05-07T07:07:35.358Z,14.07
2023-05-07T07:10:51.323Z,15.05
2023-05-07T07:14:07.261Z,15.35
2023-05-07T07:17:37.361Z,14.23
2023-05-07T07:20:53.858Z,14.43
2023-05-07T07:24:25.428Z,14.17
2023-05-07T07:27:53.402Z,14.70
2023-05-07T07:31:09.449Z,14.75
2023-05-07T07:34:38.539Z,14.73
2023-05-07T07:37:55.449Z,13.80
2023-05-07T07:41:11.364Z,14.45
2023-05-07T07:44:30.343Z,16.25
2023-05-07T07:47:46.433Z,14.80
2023-05-07T07:51:20.313Z,14.40
2023-05-07T07:54:36.460Z,15.35
2023-05-07T07:57:52.424Z,14.60
2023-05-07T08:01:08.430Z,14.17
2023-05-07T08:04:27.513Z,14.35
2023-05-07T08:07:59.674Z,14.83
2023-05-07T08:11:27.441Z,13.47
2023-05-07T08:14:43.632Z,13.90
2023-05-07T08:18:11.653Z,15.35
2023-05-07T08:21:39.464Z,13.90
2023-05-07T08:25:11.550Z,14.65
2023-05-07T08:28:40.587Z,14.13
2023-05-07T08:32:11.626Z,14.40
2023-05-07T08:35:30.512Z,14.27
2023-05-07T08:38:58.677Z,13.40
2023-05-07T08:42:27.526Z,13.30
2023-05-07T08:45:55.592Z,13.40
2023-05-07T08:49:11.645Z,12.40
2023-05-07T08:52:40.777Z,13.53
2023-05-07T08:55:56.714Z,13.57
2023-05-07T08:59:31.584Z,12.63
2023-05-07T09:02:47.638Z,12.80
2023-05-07T09:06:06.502Z,12.50
2023-05-07T09:09:22.745Z,12.07
2023-05-07T09:12:41.770Z,11.77
2023-05-07T09:16:10.732Z,12.30
2023-05-07T09:19:27.769Z,12.20
2023-05-07T09:22:43.745Z,13.30
2023-05-07T09:26:00.651Z,12.17
2023-05-07T09:29:28.745Z,12.10
2023-05-07T09:32:57.958Z,12.30
2023-05-07T09:36:13.812Z,11.00
2023-05-07T09:39:32.807Z,12.07
2023-05-07T09:43:00.721Z,11.40
2023-05-07T09:46:32.805Z,11.10
2023-05-07T09:50:02.708Z,11.57
2023-05-07T09:53:33.868Z,10.83
2023-05-07T09:57:04.831Z,11.13
2023-05-07T10:00:36.685Z,11.87
2023-05-07T10:04:07.934Z,11.10
2023-05-07T10:07:39.920Z,10.67
2023-05-07T10:11:08.856Z,10.07
2023-05-07T10:14:37.003Z,10.10
2023-05-07T10:18:08.995Z,10.07
2023-05-07T10:21:36.904Z,10.47
2023-05-07T10:25:08.497Z,9.80
2023-05-07T10:28:34.954Z,10.30
2023-05-07T10:32:15.941Z,10.30
2023-05-07T10:35:43.957Z,10.20
2023-05-07T10:39:16.846Z,9.90
2023-05-07T10:42:49.001Z,10.00
2023-05-07T10:46:38.007Z,10.00
2023-05-07T10:50:19.980Z,9.60
2023-05-07T10:53:51.162Z,9.73
2023-05-07T10:57:07.072Z,8.83
2023-05-07T11:00:43.037Z,9.53
2023-05-07T11:04:16.396Z,9.07
2023-05-07T11:07:56.122Z,9.63
2023-05-07T11:11:24.047Z,9.75
2023-05-07T11:15:01.228Z,9.10
2023-05-07T11:18:25.139Z,8.87
2023-05-07T11:22:00.904Z,8.43
2023-05-07T11:25:33.113Z,9.20
2023-05-07T11:29:05.174Z,9.40
2023-05-07T11:32:33.212Z,8.77
2023-05-07T11:36:01.098Z,7.93
2023-05-07T11:39:29.233Z,8.25
2023-05-07T11:43:01.197Z,8.40
2023-05-07T11:46:20.239Z,8.60
2023-05-07T11:49:49.135Z,7.63
2023-05-07T11:52:53.203Z,8.00
2023-05-07T11:56:21.117Z,8.30
2023-05-07T11:59:38.278Z,7.80
2023-05-07T12:03:01.597Z,7.80
2023-05-07T12:06:30.227Z,8.17
2023-05-07T12:09:34.227Z,7.97
2023-05-07T12:13:10.283Z,7.80
2023-05-07T12:16:30.306Z,7.50
2023-05-07T12:19:59.404Z,7.20
2023-05-07T12:23:15.278Z,9.10
2023-05-07T12:26:31.341Z,7.70
2023-05-07T12:29:49.330Z,8.10
2023-05-07T12:33:18.250Z,7.30
2023-05-07T12:36:34.345Z,7.60
2023-05-07T12:39:51.273Z,6.80
2023-05-07T12:43:07.402Z,7.40
2023-05-07T12:46:26.537Z,7.35
2023-05-07T12:49:43.502Z,6.60
2023-05-07T12:53:11.281Z,6.00
2023-05-07T12:56:27.423Z,6.43
2023-05-07T13:00:05.569Z,6.03
2023-05-07T13:03:12.463Z,5.67
2023-05-07T13:06:42.330Z,5.50
2023-05-07T13:10:01.351Z,5.80
2023-05-07T13:13:20.429Z,5.17
2023-05-07T13:16:36.512Z,5.33
2023-05-07T13:19:52.382Z,5.43
2023-05-07T13:23:09.423Z,5.20
2023-05-07T13:26:28.485Z,4.80
2023-05-07T13:29:32.534Z,5.87
2023-05-07T13:32:48.558Z,5.80
2023-05-07T13:35:52.496Z,4.67
2023-05-07T13:39:21.646Z,5.10
2023-05-07T13:42:28.312Z,5.50
2023-05-07T13:45:47.548Z,5.45
2023-05-07T13:48:51.467Z,4.97
2023-05-07T13:52:10.579Z,5.40
2023-05-07T13:55:30.624Z,5.83
2023-05-07T13:58:59.618Z,5.80
2023-05-07T14:01:53.598Z,5.50
2023-05-07T14:05:10.513Z,4.53
2023-05-07T14:08:14.769Z,4.90
2023-05-07T14:11:46.679Z,4.40
2023-05-07T14:14:50.596Z,4.87
2023-05-07T14:18:09.585Z,4.93
2023-05-07T14:21:13.674Z,4.83
2023-05-07T14:24:38.090Z,4.83
2023-05-07T14:27:46.687Z,4.53
2023-05-07T14:31:05.633Z,4.60
2023-05-07T14:34:09.666Z,4.97
2023-05-07T14:37:40.618Z,4.87
2023-05-07T14:40:44.490Z,4.57
2023-05-07T14:44:16.827Z,4.50
2023-05-07T14:47:20.712Z,4.17
2023-05-07T14:50:39.964Z,4.93
2023-05-07T14:53:43.679Z,5.20
2023-05-07T14:56:59.728Z,4.90
2023-05-07T15:00:17.802Z,4.85
2023-05-07T15:03:49.782Z,4.90
2023-05-07T15:07:05.692Z,4.50
2023-05-07T15:10:24.791Z,5.73
2023-05-07T15:13:28.943Z,4.40
2023-05-07T15:17:03.851Z,4.87
2023-05-07T15:20:07.762Z,4.70
2023-05-07T15:23:35.806Z,5.40
2023-05-07T15:26:42.827Z,5.90
2023-05-07T15:30:04.851Z,5.67
2023-05-07T15:33:24.932Z,5.90
2023-05-07T15:36:40.842Z,6.05
2023-05-07T15:39:44.857Z,6.00
2023-05-07T15:43:03.804Z,6.50
2023-05-07T15:46:07.973Z,6.70
2023-05-07T15:49:39.868Z,6.23
2023-05-07T15:52:43.954Z,6.87
2023-05-07T15:56:02.952Z,6.70
2023-05-07T15:59:07.893Z,7.30
2023-05-07T16:02:27.051Z,5.80
2023-05-07T16:05:59.010Z,6.20
2023-05-07T16:09:02.973Z,6.40
2023-05-07T16:12:18.815Z,6.40
2023-05-07T16:15:35.049Z,7.27
2023-05-07T16:19:05.932Z,5.83
2023-05-07T16:22:34.826Z,6.05
2023-05-07T16:26:21.128Z,6.00
2023-05-07T16:29:45.692Z,5.77
2023-05-07T16:33:10.951Z,6.47
2023-05-07T16:36:30.018Z,6.10
2023-05-07T16:40:02.147Z,6.90
2023-05-07T16:43:06.330Z,5.80
2023-05-07T16:46:23.174Z,6.37
2023-05-07T16:49:27.127Z,6.27
2023-05-07T16:52:55.145Z,6.10
2023-05-07T16:56:12.107Z,6.57
2023-05-07T16:59:28.055Z,6.37
2023-05-07T17:02:32.146Z,6.13
2023-05-07T17:05:51.107Z,6.60
2023-05-07T17:09:07.186Z,6.73
2023-05-07T17:12:39.196Z,7.00
2023-05-07T17:15:43.228Z,7.27
2023-05-07T17:19:00.122Z,6.00
2023-05-07T17:22:04.183Z,6.43
2023-05-07T17:25:21.201Z,6.47
2023-05-07T17:28:39.206Z,7.23
2023-05-07T17:31:55.253Z,7.03
2023-05-07T17:34:59.189Z,7.30
2023-05-07T17:38:27.286Z,7.73
2023-05-07T17:41:31.224Z,6.83
2023-05-07T17:45:03.309Z,7.10
2023-05-07T17:48:07.228Z,6.70
2023-05-07T17:51:23.261Z,7.20
2023-05-07T17:54:27.326Z,6.67
2023-05-07T17:57:58.232Z,6.13
2023-05-07T18:01:15.378Z,6.23
2023-05-07T18:04:31.304Z,6.70
2023-05-07T18:07:47.316Z,6.97
2023-05-07T18:11:03.371Z,7.37
2023-05-07T18:14:07.273Z,6.40
2023-05-07T18:17:40.480Z,7.17
2023-05-07T18:20:44.351Z,6.60
2023-05-07T18:24:00.300Z,6.37
2023-05-07T18:27:04.461Z,6.83
2023-05-07T18:30:36.512Z,6.57
2023-05-07T18:33:56.448Z,7.63
2023-05-07T18:37:15.361Z,6.40
2023-05-07T18:40:31.348Z,6.80
2023-05-07T18:43:59.463Z,6.47
2023-05-07T18:47:03.558Z,7.03
2023-05-07T18:50:36.486Z,6.95
2023-05-07T18:53:52.501Z,6.90
2023-05-07T18:57:08.493Z,6.37
2023-05-07T19:00:12.621Z,6.67
2023-05-07T19:03:43.566Z,6.47
2023-05-07T19:07:03.551Z,6.60
2023-05-07T19:10:19.584Z,6.40
2023-05-07T19:13:23.590Z,5.60
2023-05-07T19:16:39.636Z,6.17
2023-05-07T19:19:44.040Z,5.63
2023-05-07T19:23:18.765Z,6.00
2023-05-07T19:26:34.553Z,5.90
2023-05-07T19:29:53.577Z,6.57
2023-05-07T19:32:58.642Z,6.05
2023-05-07T19:36:18.778Z,6.33
2023-05-07T19:39:35.918Z,6.13
2023-05-07T19:43:04.712Z,5.67
2023-05-07T19:46:20.853Z,5.83
2023-05-07T19:49:51.687Z,6.30
2023-05-07T19:52:55.775Z,5.65
2023-05-07T19:56:31.712Z,5.73
2023-05-07T19:59:35.702Z,6.10
2023-05-07T20:02:51.963Z,5.97
2023-05-07T20:06:10.709Z,6.13
2023-05-07T20:09:14.689Z,5.65
2023-05-07T20:12:46.681Z,5.50
2023-05-07T20:16:02.888Z,5.93
2023-05-07T20:19:51.799Z,5.90
2023-05-07T20:23:10.679Z,6.40
2023-05-07T20:26:29.822Z,5.60
2023-05-07T20:29:46.725Z,5.70
2023-05-07T20:33:10.195Z,6.20
2023-05-07T20:36:26.470Z,5.70
2023-05-07T20:39:44.027Z,6.10
2023-05-07T20:42:50.768Z,5.50
2023-05-07T20:46:29.850Z,6.25
2023-05-07T20:49:45.901Z,5.70
2023-05-07T20:53:04.895Z,5.70
2023-05-07T20:56:08.884Z,5.63
2023-05-07T20:59:27.852Z,6.15
2023-05-07T21:02:44.991Z,6.00
2023-05-07T21:06:18.892Z,5.50
2023-05-07T21:09:22.944Z,5.90
2023-05-07T21:12:41.939Z,5.60
2023-05-07T21:15:45.937Z,5.65
2023-05-07T21:19:20.919Z,5.80
2023-05-07T21:22:36.997Z,5.60
2023-05-07T21:26:05.896Z,6.20
2023-05-07T21:29:10.120Z,5.13
2023-05-07T21:32:26.022Z,6.00
2023-05-07T21:35:46.013Z,5.50
2023-05-07T21:39:05.043Z,4.93
2023-05-07T21:42:08.973Z,6.23
2023-05-07T21:45:37.993Z,5.40
2023-05-07T21:48:41.935Z,5.35
2023-05-07T21:52:15.096Z,5.60
2023-05-07T21:55:31.163Z,5.75
2023-05-07T21:58:50.070Z,5.53
2023-05-07T22:01:54.138Z,6.35
2023-05-07T22:05:13.234Z,5.60
2023-05-07T22:08:33.055Z,6.20
2023-05-07T22:11:53.132Z,6.23
2023-05-07T22:14:57.063Z,6.10
2023-05-07T22:18:16.176Z,6.43
2023-05-07T22:21:20.049Z,6.10
2023-05-07T22:24:50.409Z,5.70
2023-05-07T22:27:54.315Z,5.65
2023-05-07T22:31:11.390Z,6.40
2023-05-07T22:34:15.185Z,6.47
2023-05-07T22:37:31.140Z,6.65
2023-05-07T22:40:51.390Z,5.93
2023-05-07T22:44:08.260Z,6.20
2023-05-07T22:47:12.214Z,6.50
2023-05-07T22:50:31.257Z,6.77
2023-05-07T22:53:47.247Z,6.50
2023-05-07T22:57:25.180Z,6.10
2023-05-07T23:00:29.165Z,6.60
2023-05-07T23:03:48.206Z,6.77
2023-05-07T23:06:52.216Z,6.30
2023-05-07T23:10:23.291Z,5.73
2023-05-07T23:13:40.264Z,7.20
2023-05-07T23:16:57.822Z,6.37
2023-05-07T23:20:04.351Z,6.20
2023-05-07T23:23:23.356Z,6.73
2023-05-07T23:26:27.318Z,7.20
2023-05-07T23:30:02.521Z,6.55
2023-05-07T23:33:06.363Z,6.70
2023-05-07T23:36:25.290Z,7.00
2023-05-07T23:39:29.386Z,6.80
2023-05-07T23:42:48.402Z,6.63
2023-05-07T23:46:05.361Z,7.00
2023-05-07T23:49:24.477Z,6.80
2023-05-07T23:52:29.219Z,6.17
2023-05-07T23:55:48.394Z,6.90
2023-05-07T23:58:54.604Z,6.60
